Fortune Wing — VRHW2 — position and weather

sailwx.info

Track history (hours):
 
Tides and Currents Weather Stations Pressure Air Temp Water Temp Dewpoint Dewpoint Depression Visibility Wind Speed Wind Dir Waves Ship Positions

Fortune Wing

Last reported at 2015-Apr-19 16:31 UTC. Time now 2015-Apr-19 17:32 UTC.
Position N 32°06' W 081°06'.

Length 190 m; draft 9.8 m.

Type: Cargo ship. MMSI: 477389500.

Date/timePositionNaut miles runAvg speedWind from/ knotsBaromVisibWave heightAir tempDewpointWater temp
2015-Apr-19 16:31N 32°06' W 081°06'0 0.0
2015-Apr-19 15:31N 32°06' W 081°06'0 0.0
2015-Apr-19 14:31N 32°06' W 081°06'0 0.0
2015-Apr-19 13:31N 32°06' W 081°06'0 0.0
2015-Apr-19 12:31N 32°06' W 081°06'0 0.0
2015-Apr-19 11:31N 32°06' W 081°06'0 0.0
2015-Apr-19 10:31N 32°06' W 081°06'0 0.0
2015-Apr-19 09:31N 32°06' W 081°06'0 0.0
2015-Apr-19 08:31N 32°06' W 081°06'0 0.0
2015-Apr-19 07:31N 32°06' W 081°06'0 0.0
2015-Apr-19 06:33N 32°06' W 081°06'4 3.8
2015-Apr-19 05:33N 32°05' W 081°02'7 6.7
2015-Apr-19 04:33N 32°02' W 080°55'9 8.9
2015-Apr-19 03:34N 31°59' W 080°45'7 6.6
2015-Apr-19 02:33N 31°58' W 080°37'3 2.3
2015-Apr-19 01:28N 31°59' W 080°34'0 0.1
2015-Apr-19 00:28N 31°58' W 080°34'0 0.0
2015-Apr-18 23:31N 31°58' W 080°34'0 0.0
2015-Apr-18 22:31N 31°58' W 080°34'0 0.0
2015-Apr-18 21:31N 31°58' W 080°34'0 0.0
2015-Apr-18 20:31N 31°58' W 080°34'0 0.0
2015-Apr-18 19:31N 31°58' W 080°34'0 0.0
2015-Apr-18 18:31N 31°58' W 080°34'0 0.2
2015-Apr-18 17:28N 31°58' W 080°34'0 0.0
2015-Apr-18 16:31N 31°58' W 080°34'0 0.0
2015-Apr-18 15:29N 31°58' W 080°34'4 4.4
2015-Apr-18 14:29N 31°58' W 080°29'31 9.9
2015-Apr-18 11:24N 32°00' W 079°53'  
2015-Apr-09 23:30N 39°01' W 030°57'1612.0
2015-Apr-09 22:12N 39°09' W 030°39'812.3
2015-Apr-09 21:32N 39°13' W 030°30'1212.1
2015-Apr-09 20:33N 39°19' W 030°17'1212.0
2015-Apr-09 19:33N 39°25' W 030°03'1211.9
2015-Apr-09 18:33N 39°31' W 029°50'1212.0
2015-Apr-09 17:33N 39°36' W 029°36'1211.9
2015-Apr-09 16:33N 39°42' W 029°23'  
Track history (hours):
 
Tides and Currents Weather Stations Pressure Air Temp Water Temp Dewpoint Dewpoint Depression Visibility Wind Speed Wind Dir Waves Ship Positions

Fortune Wing

Last reported at 2015-Apr-19 16:31 UTC. Time now 2015-Apr-19 17:32 UTC.
Position N 32°06' W 081°06'.

Length 190 m; draft 9.8 m.

Type: Cargo ship. MMSI: 477389500.

Date/timePositionNaut miles runAvg speedWind from/ knotsBaromVisibWave heightAir tempDewpointWater temp
2015-Apr-19 16:31N 32°06' W 081°06'0 0.0
2015-Apr-19 15:31N 32°06' W 081°06'0 0.0
2015-Apr-19 14:31N 32°06' W 081°06'0 0.0
2015-Apr-19 13:31N 32°06' W 081°06'0 0.0
2015-Apr-19 12:31N 32°06' W 081°06'0 0.0
2015-Apr-19 11:31N 32°06' W 081°06'0 0.0
2015-Apr-19 10:31N 32°06' W 081°06'0 0.0
2015-Apr-19 09:31N 32°06' W 081°06'0 0.0
2015-Apr-19 08:31N 32°06' W 081°06'0 0.0
2015-Apr-19 07:31N 32°06' W 081°06'0 0.0
2015-Apr-19 06:33N 32°06' W 081°06'4 3.8
2015-Apr-19 05:33N 32°05' W 081°02'7 6.7
2015-Apr-19 04:33N 32°02' W 080°55'9 8.9
2015-Apr-19 03:34N 31°59' W 080°45'7 6.6
2015-Apr-19 02:33N 31°58' W 080°37'3 2.3
2015-Apr-19 01:28N 31°59' W 080°34'0 0.1
2015-Apr-19 00:28N 31°58' W 080°34'0 0.0
2015-Apr-18 23:31N 31°58' W 080°34'0 0.0
2015-Apr-18 22:31N 31°58' W 080°34'0 0.0
2015-Apr-18 21:31N 31°58' W 080°34'0 0.0
2015-Apr-18 20:31N 31°58' W 080°34'0 0.0
2015-Apr-18 19:31N 31°58' W 080°34'0 0.0
2015-Apr-18 18:31N 31°58' W 080°34'0 0.2
2015-Apr-18 17:28N 31°58' W 080°34'0 0.0
2015-Apr-18 16:31N 31°58' W 080°34'0 0.0
2015-Apr-18 15:29N 31°58' W 080°34'4 4.4
2015-Apr-18 14:29N 31°58' W 080°29'31 9.9
2015-Apr-18 11:24N 32°00' W 079°53'  
2015-Apr-09 23:30N 39°01' W 030°57'1612.0
2015-Apr-09 22:12N 39°09' W 030°39'812.3
2015-Apr-09 21:32N 39°13' W 030°30'1212.1
2015-Apr-09 20:33N 39°19' W 030°17'1212.0
2015-Apr-09 19:33N 39°25' W 030°03'1211.9
2015-Apr-09 18:33N 39°31' W 029°50'1212.0
2015-Apr-09 17:33N 39°36' W 029°36'1211.9
2015-Apr-09 16:33N 39°42' W 029°23'  

Dump ship's entire track history